• Join FlightAware (Why Join?)
  • Login
  • US Flag 
01:13PM EDT


 

Airport Tracker/Info


-or-


 

Live Flight TrackerFlight Track Log ✈ N199CG ✈ 13-Jul-2013 ✈ KTRI - KHBI

Flight Track Log - Related Links

Times and Time Zones

All times are in EDT time to prevent confusion due to time zone crossing. See the N199CG flight status page for this flight to view local times or setup timezone preferences in your user account.

Time Position Orientation Groundspeed Altitude Reporting Facility
EDT Latitude Longitude Course Direction KTS MPH feet Rate Location/Type
07:42PM 36.4842 -82.3139 109° East 145 167 4,700  Level Atlanta Center
07:43PM 36.4689 -82.2653 111° Southeast 152 175 6,200 1,380 Climbing Atlanta Center
07:44PM 36.4514 -82.2139 113° Southeast 175 201 7,500 1,380 Climbing Atlanta Center
07:45PM 36.4339 -82.1653 114° Southeast 169 194 9,000 1,260 Climbing Atlanta Center
07:46PM 36.4167 -82.1167 114° Southeast 162 186 10,100 960 Climbing Atlanta Center
07:47PM 36.3297 -81.9704 109° East  Level FlightAware Approximate
07:47PM 36.3989 -82.0603 111° Southeast 162 186 11,000  Level Atlanta Center
07:48PM 36.3087 -81.8969 109° East  Level FlightAware Approximate
07:48PM 36.3769 -81.9939 112° Southeast 185 213 11,000  Level Atlanta Center
07:49PM 36.3572 -81.9300 111° Southeast 200 230 12,500 1,500 Climbing Atlanta Center
07:50PM 36.3394 -81.8711 111° Southeast 177 204 14,000 1,200 Climbing Atlanta Center
07:51PM 36.3197 -81.8200 116° Southeast 168 193 15,000 480 Climbing Atlanta Center
07:52PM 36.2997 -81.7561 111° Southeast 184 212 15,000  Level Atlanta Center
07:53PM 36.2756 -81.6875 114° Southeast 207 238 15,000  Level Atlanta Center
07:54PM 36.2533 -81.6211 113° Southeast 218 251 15,000  Level Atlanta Center
07:55PM 36.2292 -81.5522 113° Southeast 223 257 15,000  Level Atlanta Center
07:56PM 36.2047 -81.4811 113° Southeast 223 257 15,000  Level Atlanta Center
07:57PM 36.1803 -81.4097 113° Southeast 218 251 15,000  Level Atlanta Center
07:58PM 36.1578 -81.3386 111° Southeast 218 251 15,000  Level Atlanta Center
07:59PM 36.1292 -81.2622 115° Southeast 223 257 15,000  Level Atlanta Center
08:00PM 36.1314 -81.1800 88° East 223 257 15,000  Level Atlanta Center
08:01PM 36.1233 -81.1006 97° East 228 262 15,000  Level Atlanta Center
08:02PM 36.1089 -81.0239 103° East 233 268 15,000  Level Atlanta Center
08:03PM 36.0781 -80.9583 120° Southeast 226 260 15,000  Level Atlanta Center
08:04PM 36.0533 -80.8900 114° Southeast 226 260 15,000  Level Atlanta Center
08:05PM 36.0267 -80.8217 116° Southeast 220 253 15,000  Level Atlanta Center
08:06PM 35.9975 -80.7511 117° Southeast 220 253 15,000 -360 Level Atlanta Center
08:07PM 35.9708 -80.6906 119° Southeast 220 253 14,300 -1,020 Descending Atlanta Center
08:08PM 35.9314 -80.6228 126° Southeast 232 267 13,000 -720 Descending Atlanta Center
08:09PM 35.9006 -80.5575 120° Southeast 227 261 12,900 -780 Descending Atlanta Center
08:10PM 35.8733 -80.4894 116° Southeast 220 253 11,500 -2,100 Descending Atlanta Center
08:11PM 35.8442 -80.4164 116° Southeast 225 259 8,800 -2,760 Descending Atlanta Center
08:12PM 35.8147 -80.3383 115° Southeast 225 259 6,000 -2,760 Descending Atlanta Center
08:13PM 35.7919 -80.2756 114° Southeast 220 253 3,300 -1,500 Descending Atlanta Center
08:14PM 35.7733 -80.2147 111° Southeast 209 241 3,000 -180 Descending Atlanta Center
08:15PM 35.7483 -80.1494 115° Southeast 202 232 3,000  Level Atlanta Center
08:16PM 35.7300 -80.0992 114° Southeast 185 213 3,000  Level Atlanta Center
08:18PM 35.6950 -80.0208 116° Southeast  Level FlightAware Approximate
08:25PM 35.6545 -79.8948 107° East  Level Estimated